Time;durP1;ratioP1;P1;durP2;ratioP2;P2;SDS_P1;SDS_P2;PMS_P1;PMS_P2;Temp;Humidity;BMP_temperature;BMP_pressure;BME280_temperature;BME280_humidity;BME280_pressure;Samples;Min_cycle;Max_cycle;Signal;HPM_P1;HPM_P2
2021/06/20 00:01:15;;;;;;;47.33;32.17;;;;;;;;;;5038784;28;37767;-81
2021/06/20 00:03:42;;;;;;;44.90;29.25;;;;;;;;;;5029467;28;40572;-81
2021/06/20 00:06:17;;;;;;;44.67;29.15;;;;;;;;;;5037453;27;38958;-81
2021/06/20 00:08:44;;;;;;;39.67;26.27;;;;;;;;;;5033708;28;39299;-81
2021/06/20 00:11:10;;;;;;;35.40;25.38;;;;;;;;;;5029670;27;36944;-81
2021/06/20 00:13:37;;;;;;;35.50;24.70;;;;;;;;;;5028952;28;39885;-82
2021/06/20 00:16:03;;;;;;;34.47;22.95;;;;;;;;;;5028450;28;38602;-82
2021/06/20 00:18:29;;;;;;;39.33;25.17;;;;;;;;;;5030954;28;38750;-80
2021/06/20 00:20:56;;;;;;;38.42;23.55;;;;;;;;;;5058951;27;37943;-82
2021/06/20 00:23:22;;;;;;;34.30;21.27;;;;;;;;;;5056132;28;38770;-80
2021/06/20 00:25:48;;;;;;;23.48;15.45;;;;;;;;;;5048306;28;37578;-81
2021/06/20 00:28:15;;;;;;;17.73;12.70;;;;;;;;;;5049954;27;40134;-81
2021/06/20 00:30:41;;;;;;;17.52;11.88;;;;;;;;;;5056658;28;37523;-81
2021/06/20 00:33:08;;;;;;;12.35;10.18;;;;;;;;;;5065610;27;35186;-80
2021/06/20 00:35:35;;;;;;;12.55;9.82;;;;;;;;;;5055355;27;39938;-80
2021/06/20 00:38:01;;;;;;;13.30;9.18;;;;;;;;;;5056540;28;39319;-79
2021/06/20 00:40:27;;;;;;;14.43;10.38;;;;;;;;;;5054864;28;47150;-82
2021/06/20 00:42:54;;;;;;;14.38;9.77;;;;;;;;;;5060102;28;37221;-79
2021/06/20 00:45:22;;;;;;;10.90;8.10;;;;;;;;;;5054699;27;39705;-79
2021/06/20 00:47:48;;;;;;;9.50;7.03;;;;;;;;;;5049025;27;38230;-80
2021/06/20 00:50:15;;;;;;;12.20;7.70;;;;;;;;;;5050082;27;37494;-81
2021/06/20 00:52:42;;;;;;;11.90;8.52;;;;;;;;;;5052213;27;37850;-80
2021/06/20 00:55:09;;;;;;;12.27;8.35;;;;;;;;;;5092515;27;39304;-82
2021/06/20 00:57:35;;;;;;;10.90;7.72;;;;;;;;;;5081142;28;41165;-82
2021/06/20 01:00:03;;;;;;;10.20;8.27;;;;;;;;;;5086413;28;38957;-84
2021/06/20 01:02:30;;;;;;;11.43;8.02;;;;;;;;;;5074162;28;47764;-80
2021/06/20 01:04:56;;;;;;;10.27;8.25;;;;;;;;;;5060419;27;39317;-82
2021/06/20 01:07:23;;;;;;;11.98;9.40;;;;;;;;;;5049126;27;37444;-81
2021/06/20 01:09:50;;;;;;;10.68;8.73;;;;;;;;;;5049759;28;37626;-81
2021/06/20 01:12:17;;;;;;;12.07;8.90;;;;;;;;;;5046569;28;39682;-82
2021/06/20 01:14:44;;;;;;;14.43;9.65;;;;;;;;;;5076914;27;39438;-83
2021/06/20 01:17:11;;;;;;;11.93;9.35;;;;;;;;;;5060109;27;38701;-82
2021/06/20 01:19:38;;;;;;;12.23;9.88;;;;;;;;;;5050413;28;38444;-82
2021/06/20 01:22:14;;;;;;;13.07;10.27;;;;;;;;;;5047494;27;38811;-83
2021/06/20 01:24:40;;;;;;;12.30;9.77;;;;;;;;;;5046418;28;39171;-83
2021/06/20 01:27:07;;;;;;;14.07;10.60;;;;;;;;;;5054541;28;39153;-82
2021/06/20 01:29:34;;;;;;;13.73;11.32;;;;;;;;;;5050617;27;36543;-83
2021/06/20 01:32:01;;;;;;;14.07;11.48;;;;;;;;;;5046850;28;39571;-81
2021/06/20 01:34:27;;;;;;;12.60;10.43;;;;;;;;;;5040271;28;46345;-83
2021/06/20 01:36:54;;;;;;;15.00;11.95;;;;;;;;;;5044069;28;39024;-83
2021/06/20 01:39:20;;;;;;;14.13;9.77;;;;;;;;;;5046883;27;36926;-82
2021/06/20 01:41:48;;;;;;;13.50;9.57;;;;;;;;;;5047493;28;39694;-83
2021/06/20 01:44:14;;;;;;;10.45;8.35;;;;;;;;;;5048567;28;40294;-82
2021/06/20 01:46:48;;;;;;;10.85;8.30;;;;;;;;;;5062590;27;36901;-81
2021/06/20 01:49:14;;;;;;;10.95;7.18;;;;;;;;;;5049655;27;36847;-83
2021/06/20 01:51:45;;;;;;;9.02;7.22;;;;;;;;;;5047969;28;40600;-83
2021/06/20 01:54:11;;;;;;;9.40;7.15;;;;;;;;;;5046632;27;39867;-81
2021/06/20 01:56:38;;;;;;;11.38;8.60;;;;;;;;;;5045956;27;39223;-80
2021/06/20 01:59:04;;;;;;;8.07;6.88;;;;;;;;;;5044515;27;37872;-82
2021/06/20 02:01:30;;;;;;;9.00;6.68;;;;;;;;;;5044530;27;40381;-80
2021/06/20 02:03:58;;;;;;;6.28;5.57;;;;;;;;;;5052970;28;39118;-81
2021/06/20 02:06:25;;;;;;;6.22;5.63;;;;;;;;;;5049656;27;38368;-81
2021/06/20 02:08:51;;;;;;;6.60;5.25;;;;;;;;;;5046574;28;37203;-81
2021/06/20 02:11:17;;;;;;;5.18;4.47;;;;;;;;;;5047165;28;39774;-81
2021/06/20 02:13:44;;;;;;;5.03;4.25;;;;;;;;;;5044845;28;39129;-81
2021/06/20 02:16:10;;;;;;;4.78;4.13;;;;;;;;;;5049501;27;38949;-81
2021/06/20 02:18:36;;;;;;;5.72;4.47;;;;;;;;;;5049034;28;37810;-80
2021/06/20 02:21:03;;;;;;;5.32;4.15;;;;;;;;;;5046553;27;41114;-81
2021/06/20 02:23:29;;;;;;;4.03;3.53;;;;;;;;;;5055184;28;38674;-81
2021/06/20 02:25:56;;;;;;;6.57;3.88;;;;;;;;;;5047622;27;38990;-81
2021/06/20 02:28:22;;;;;;;5.57;3.67;;;;;;;;;;5052694;28;37458;-81
2021/06/20 02:30:48;;;;;;;3.95;3.35;;;;;;;;;;5052029;27;38639;-80
2021/06/20 02:33:15;;;;;;;3.00;2.78;;;;;;;;;;5048296;28;40064;-79
2021/06/20 02:35:41;;;;;;;3.13;2.83;;;;;;;;;;5046858;27;38960;-80
2021/06/20 02:38:08;;;;;;;2.95;2.65;;;;;;;;;;5058452;27;38081;-81
2021/06/20 02:40:34;;;;;;;3.13;2.83;;;;;;;;;;5046380;28;39455;-82
2021/06/20 02:43:01;;;;;;;3.35;2.67;;;;;;;;;;5041792;27;40441;-80
2021/06/20 02:45:27;;;;;;;3.17;2.88;;;;;;;;;;5027213;28;47144;-81
2021/06/20 02:47:53;;;;;;;3.15;2.50;;;;;;;;;;5039642;28;35963;-81
2021/06/20 02:50:20;;;;;;;3.00;2.35;;;;;;;;;;5028181;27;40164;-81
2021/06/20 02:52:46;;;;;;;2.13;1.83;;;;;;;;;;5043155;28;38983;-81
2021/06/20 02:55:13;;;;;;;1.85;1.75;;;;;;;;;;5052275;27;38743;-81
2021/06/20 02:57:40;;;;;;;2.00;1.80;;;;;;;;;;5054701;28;38438;-81
2021/06/20 03:00:06;;;;;;;3.50;2.42;;;;;;;;;;5050180;28;37960;-81
2021/06/20 03:02:33;;;;;;;1.55;1.45;;;;;;;;;;5051091;27;49003;-80
2021/06/20 03:05:00;;;;;;;2.03;1.80;;;;;;;;;;5047868;28;39082;-80
2021/06/20 03:07:27;;;;;;;2.22;1.70;;;;;;;;;;5047669;28;37060;-80
2021/06/20 03:09:53;;;;;;;1.80;1.70;;;;;;;;;;5050803;28;39260;-81
2021/06/20 03:12:20;;;;;;;1.60;1.50;;;;;;;;;;5049693;27;39871;-82
2021/06/20 03:14:47;;;;;;;1.83;1.58;;;;;;;;;;5051786;28;39665;-80
2021/06/20 03:17:14;;;;;;;2.40;1.60;;;;;;;;;;5049607;27;37388;-80
2021/06/20 03:19:41;;;;;;;1.60;1.50;;;;;;;;;;5050109;28;39692;-80
2021/06/20 03:22:08;;;;;;;3.17;1.83;;;;;;;;;;5052730;28;40241;-81
2021/06/20 03:24:35;;;;;;;3.33;1.88;;;;;;;;;;5048641;28;39254;-81
2021/06/20 03:27:02;;;;;;;3.60;1.38;;;;;;;;;;5054165;27;36705;-80
2021/06/20 03:29:29;;;;;;;2.08;1.95;;;;;;;;;;5046744;27;38984;-82
2021/06/20 03:31:55;;;;;;;2.22;1.55;;;;;;;;;;5048918;27;39630;-81
2021/06/20 03:34:22;;;;;;;2.75;1.70;;;;;;;;;;5050464;27;38756;-81
2021/06/20 03:36:48;;;;;;;1.77;1.30;;;;;;;;;;5051848;28;36790;-81
2021/06/20 03:39:15;;;;;;;2.15;1.95;;;;;;;;;;5050078;27;39756;-81
2021/06/20 03:41:41;;;;;;;2.53;1.40;;;;;;;;;;5048758;27;40042;-80
2021/06/20 03:44:08;;;;;;;2.55;1.77;;;;;;;;;;5050165;28;40298;-80
2021/06/20 03:46:35;;;;;;;2.00;1.65;;;;;;;;;;5050097;27;36316;-81
2021/06/20 03:49:02;;;;;;;1.30;1.20;;;;;;;;;;5045541;27;39980;-79
2021/06/20 03:51:29;;;;;;;2.45;1.85;;;;;;;;;;5051995;28;47223;-78
2021/06/20 03:53:55;;;;;;;2.65;2.08;;;;;;;;;;5051697;27;38399;-80
2021/06/20 03:56:22;;;;;;;3.45;1.63;;;;;;;;;;5052159;28;37085;-79
2021/06/20 03:58:48;;;;;;;2.92;1.60;;;;;;;;;;5051529;28;39968;-80
2021/06/20 04:01:14;;;;;;;5.20;1.60;;;;;;;;;;5050341;27;39975;-81
2021/06/20 04:03:41;;;;;;;4.40;2.13;;;;;;;;;;5055780;28;39026;-80
2021/06/20 04:06:07;;;;;;;3.53;1.80;;;;;;;;;;5045901;27;36849;-80
2021/06/20 04:08:34;;;;;;;4.13;2.65;;;;;;;;;;5041113;28;39742;-79
2021/06/20 04:11:00;;;;;;;4.32;1.85;;;;;;;;;;5045924;28;40579;-79
2021/06/20 04:13:26;;;;;;;2.60;2.40;;;;;;;;;;5047042;27;38904;-79
2021/06/20 04:15:53;;;;;;;2.42;2.22;;;;;;;;;;5049409;28;38164;-79
2021/06/20 04:18:19;;;;;;;3.60;1.75;;;;;;;;;;5046513;27;37436;-79
2021/06/20 04:20:46;;;;;;;4.28;2.40;;;;;;;;;;5044223;27;40527;-80
2021/06/20 04:23:12;;;;;;;5.75;2.28;;;;;;;;;;5048963;27;38173;-80
2021/06/20 04:25:38;;;;;;;4.55;2.47;;;;;;;;;;5048541;27;37741;-79
2021/06/20 04:28:05;;;;;;;3.80;3.13;;;;;;;;;;5046331;27;38746;-80
2021/06/20 04:30:31;;;;;;;5.03;4.18;;;;;;;;;;5046255;27;39023;-80
2021/06/20 04:32:59;;;;;;;5.78;4.30;;;;;;;;;;5052242;28;39278;-78
2021/06/20 04:35:25;;;;;;;6.60;5.22;;;;;;;;;;5044715;28;37006;-81
2021/06/20 04:37:52;;;;;;;5.10;4.60;;;;;;;;;;5046992;28;40338;-80
2021/06/20 04:40:23;;;;;;;8.65;7.55;;;;;;;;;;5047653;27;39864;-79
2021/06/20 04:45:36;;;;;;;7.45;5.80;;;;;;;;;;5047446;27;49660;-80
2021/06/20 04:48:03;;;;;;;8.30;6.85;;;;;;;;;;5045239;28;39771;-80
2021/06/20 04:50:29;;;;;;;8.57;7.70;;;;;;;;;;5048644;28;38184;-80
2021/06/20 04:52:55;;;;;;;9.80;7.22;;;;;;;;;;5080373;27;39003;-80
2021/06/20 04:55:22;;;;;;;8.77;7.90;;;;;;;;;;5046280;27;36743;-79
2021/06/20 04:57:48;;;;;;;9.10;8.20;;;;;;;;;;5050698;28;40111;-81
2021/06/20 05:00:15;;;;;;;9.55;8.57;;;;;;;;;;5041930;27;39827;-79
2021/06/20 05:02:41;;;;;;;11.68;10.40;;;;;;;;;;5045113;27;39415;-81
2021/06/20 05:05:08;;;;;;;9.98;9.02;;;;;;;;;;5048786;27;37104;-79
2021/06/20 05:07:34;;;;;;;9.90;9.02;;;;;;;;;;5048367;28;36297;-81
2021/06/20 05:10:01;;;;;;;12.07;10.82;;;;;;;;;;5045410;27;39363;-80
2021/06/20 05:12:28;;;;;;;13.13;11.80;;;;;;;;;;5047390;28;44804;-78
2021/06/20 05:14:54;;;;;;;13.25;10.93;;;;;;;;;;5044845;28;36331;-78
2021/06/20 05:17:21;;;;;;;10.63;9.63;;;;;;;;;;5046123;27;39478;-79
2021/06/20 05:19:47;;;;;;;9.00;8.10;;;;;;;;;;5044424;27;39591;-78
2021/06/20 05:22:14;;;;;;;9.25;8.32;;;;;;;;;;5047733;27;37943;-78
2021/06/20 05:24:41;;;;;;;8.70;7.63;;;;;;;;;;5047187;27;36896;-79
2021/06/20 05:27:08;;;;;;;6.50;5.90;;;;;;;;;;5051227;27;40709;-79
2021/06/20 05:29:34;;;;;;;6.32;5.70;;;;;;;;;;5045734;28;39966;-79
2021/06/20 05:32:01;;;;;;;4.80;4.32;;;;;;;;;;5044165;27;38227;-79
2021/06/20 05:34:27;;;;;;;4.55;4.05;;;;;;;;;;5041835;28;46828;-79
2021/06/20 05:36:54;;;;;;;6.88;4.65;;;;;;;;;;5051541;27;38778;-79
2021/06/20 05:39:20;;;;;;;4.70;3.85;;;;;;;;;;5045459;27;39947;-79
2021/06/20 05:41:47;;;;;;;4.43;3.85;;;;;;;;;;5063409;27;39135;-79
2021/06/20 05:44:13;;;;;;;4.65;3.85;;;;;;;;;;5028245;28;20076;-79
2021/06/20 05:46:39;;;;;;;3.92;2.75;;;;;;;;;;5043036;28;39573;-78
2021/06/20 05:49:06;;;;;;;4.88;3.28;;;;;;;;;;5046294;27;37620;-79
2021/06/20 05:51:32;;;;;;;4.03;2.50;;;;;;;;;;5044455;27;38196;-77
2021/06/20 05:53:58;;;;;;;2.55;2.05;;;;;;;;;;5050815;28;38501;-78
2021/06/20 05:56:25;;;;;;;2.90;2.10;;;;;;;;;;5048429;27;39566;-78
2021/06/20 05:58:51;;;;;;;3.70;2.60;;;;;;;;;;5052509;27;40128;-79
2021/06/20 06:01:18;;;;;;;2.95;2.20;;;;;;;;;;5050036;28;38563;-78
2021/06/20 06:03:44;;;;;;;2.92;2.50;;;;;;;;;;5065892;27;37132;-78
2021/06/20 06:06:10;;;;;;;4.03;2.55;;;;;;;;;;5052147;27;38058;-77
2021/06/20 06:08:37;;;;;;;3.00;1.92;;;;;;;;;;5052355;27;38781;-78
2021/06/20 06:11:03;;;;;;;3.53;2.25;;;;;;;;;;5052114;27;39946;-78
2021/06/20 06:13:30;;;;;;;2.65;2.05;;;;;;;;;;5053209;28;37393;-77
2021/06/20 06:15:56;;;;;;;3.22;2.92;;;;;;;;;;5056568;27;38796;-76
2021/06/20 06:18:22;;;;;;;4.20;2.80;;;;;;;;;;5060451;28;39704;-78
2021/06/20 06:20:49;;;;;;;3.95;3.38;;;;;;;;;;5057812;28;39074;-78
2021/06/20 06:23:15;;;;;;;3.20;2.90;;;;;;;;;;5051238;27;36999;-76
2021/06/20 06:25:42;;;;;;;4.40;3.78;;;;;;;;;;5058179;27;39796;-78
2021/06/20 06:28:08;;;;;;;4.45;4.05;;;;;;;;;;5058711;28;40257;-78
2021/06/20 06:30:34;;;;;;;4.90;4.40;;;;;;;;;;5061815;27;38432;-79
2021/06/20 06:33:04;;;;;;;4.60;4.18;;;;;;;;;;5058958;27;37119;-78
2021/06/20 06:35:30;;;;;;;4.43;4.00;;;;;;;;;;5052113;27;49146;-78
2021/06/20 06:37:57;;;;;;;4.47;4.00;;;;;;;;;;5058813;27;39476;-79
2021/06/20 06:40:23;;;;;;;4.00;3.53;;;;;;;;;;5053742;28;38906;-77
2021/06/20 06:42:50;;;;;;;3.90;3.00;;;;;;;;;;5084376;27;38439;-77
2021/06/20 06:45:16;;;;;;;3.95;2.78;;;;;;;;;;5082377;28;39722;-78
2021/06/20 06:47:43;;;;;;;3.00;2.70;;;;;;;;;;5057728;27;38833;-78
2021/06/20 06:50:10;;;;;;;2.90;2.60;;;;;;;;;;5052013;27;38416;-77
2021/06/20 06:52:36;;;;;;;3.33;2.90;;;;;;;;;;5054339;28;37500;-77
2021/06/20 06:55:05;;;;;;;3.90;2.72;;;;;;;;;;5058131;27;38550;-76
2021/06/20 06:57:32;;;;;;;3.28;2.63;;;;;;;;;;5056368;27;48378;-76
2021/06/20 06:59:58;;;;;;;3.75;2.80;;;;;;;;;;5058363;28;38604;-77
2021/06/20 07:02:25;;;;;;;3.30;3.00;;;;;;;;;;5050973;27;36702;-77
2021/06/20 07:04:51;;;;;;;3.70;3.30;;;;;;;;;;5058195;28;39165;-77
2021/06/20 07:07:18;;;;;;;3.25;2.90;;;;;;;;;;5062610;27;38887;-79
2021/06/20 07:09:45;;;;;;;3.20;3.00;;;;;;;;;;5057871;28;39334;-78
2021/06/20 07:12:11;;;;;;;2.78;2.58;;;;;;;;;;5057838;28;38676;-78
2021/06/20 07:14:38;;;;;;;3.60;3.40;;;;;;;;;;5054686;27;39984;-78
2021/06/20 07:17:05;;;;;;;3.25;3.00;;;;;;;;;;5057086;27;38442;-78
2021/06/20 07:19:32;;;;;;;3.33;3.03;;;;;;;;;;5053068;28;40675;-78
2021/06/20 07:21:59;;;;;;;3.47;3.17;;;;;;;;;;5053198;27;37153;-78
2021/06/20 07:24:25;;;;;;;3.90;3.30;;;;;;;;;;5060598;28;39183;-78
2021/06/20 07:26:51;;;;;;;3.63;3.22;;;;;;;;;;5072020;27;39437;-77
2021/06/20 07:29:18;;;;;;;5.32;3.65;;;;;;;;;;5065869;27;37415;-77
2021/06/20 07:31:44;;;;;;;3.47;3.22;;;;;;;;;;5056310;27;37419;-77
2021/06/20 07:34:11;;;;;;;3.20;2.75;;;;;;;;;;5063623;28;39436;-77
2021/06/20 07:36:37;;;;;;;4.50;2.97;;;;;;;;;;5064122;28;38145;-78
2021/06/20 07:39:04;;;;;;;2.72;2.53;;;;;;;;;;5061556;28;39083;-78
2021/06/20 07:41:30;;;;;;;3.80;3.50;;;;;;;;;;5060306;27;37923;-77
2021/06/20 07:43:57;;;;;;;3.33;3.03;;;;;;;;;;5054312;28;37816;-78
2021/06/20 07:46:23;;;;;;;3.08;2.67;;;;;;;;;;5059306;27;39187;-78
2021/06/20 07:48:49;;;;;;;4.45;3.28;;;;;;;;;;5061245;27;38630;-78
2021/06/20 07:51:16;;;;;;;3.97;3.58;;;;;;;;;;5054572;28;37453;-78
2021/06/20 07:53:42;;;;;;;4.10;3.25;;;;;;;;;;5065161;28;39385;-77
2021/06/20 07:56:09;;;;;;;3.80;3.30;;;;;;;;;;5057779;27;39181;-77
2021/06/20 07:58:36;;;;;;;3.80;2.72;;;;;;;;;;5055635;28;39403;-78
2021/06/20 08:01:02;;;;;;;4.43;3.35;;;;;;;;;;5068810;28;37722;-78
2021/06/20 08:03:31;;;;;;;4.55;3.33;;;;;;;;;;5062412;28;38821;-79
2021/06/20 08:05:58;;;;;;;4.18;3.17;;;;;;;;;;5060142;27;39473;-79
2021/06/20 08:08:24;;;;;;;4.43;3.30;;;;;;;;;;5052025;27;39253;-77
2021/06/20 08:10:50;;;;;;;6.22;3.47;;;;;;;;;;5049655;28;38650;-78
2021/06/20 08:13:17;;;;;;;7.03;3.70;;;;;;;;;;5050996;27;40622;-78
2021/06/20 08:15:43;;;;;;;7.03;3.78;;;;;;;;;;5054204;28;39402;-78
2021/06/20 08:18:10;;;;;;;6.70;3.88;;;;;;;;;;5046700;28;39615;-77
2021/06/20 08:20:36;;;;;;;6.70;4.18;;;;;;;;;;5051736;28;38425;-78
2021/06/20 08:23:02;;;;;;;5.78;3.60;;;;;;;;;;5057382;28;39728;-79
2021/06/20 08:25:29;;;;;;;6.38;4.03;;;;;;;;;;5058090;27;38977;-78
2021/06/20 08:27:55;;;;;;;8.93;5.97;;;;;;;;;;5052075;28;40397;-78
2021/06/20 08:30:22;;;;;;;8.82;5.85;;;;;;;;;;5062069;27;36886;-79
2021/06/20 08:32:48;;;;;;;11.93;7.53;;;;;;;;;;5050661;27;38573;-77
2021/06/20 08:35:17;;;;;;;14.00;8.15;;;;;;;;;;5050772;28;39171;-78
2021/06/20 08:37:44;;;;;;;10.15;6.50;;;;;;;;;;5055952;27;38823;-79
2021/06/20 08:40:11;;;;;;;12.13;7.22;;;;;;;;;;5056668;27;37839;-79
2021/06/20 08:42:37;;;;;;;14.32;7.30;;;;;;;;;;5059570;28;39256;-79
2021/06/20 08:45:04;;;;;;;9.88;6.13;;;;;;;;;;5062162;27;39999;-78
2021/06/20 08:47:31;;;;;;;9.32;6.10;;;;;;;;;;5080661;27;47278;-78
2021/06/20 08:49:57;;;;;;;8.48;5.78;;;;;;;;;;5055000;27;36628;-81
2021/06/20 08:52:24;;;;;;;9.57;6.82;;;;;;;;;;5048405;28;39917;-79
2021/06/20 08:55:07;;;;;;;10.98;6.95;;;;;;;;;;5048722;28;39639;-78
2021/06/20 08:57:33;;;;;;;8.82;6.53;;;;;;;;;;5051320;28;47420;-77
2021/06/20 09:00:00;;;;;;;7.60;6.10;;;;;;;;;;5053309;28;36788;-79
2021/06/20 09:02:27;;;;;;;7.57;5.32;;;;;;;;;;5033610;28;39271;-79
2021/06/20 09:05:00;;;;;;;6.03;4.90;;;;;;;;;;5037323;28;39514;-77
2021/06/20 09:07:33;;;;;;;7.10;4.65;;;;;;;;;;5060659;27;40771;-79
2021/06/20 09:10:12;;;;;;;6.07;3.75;;;;;;;;;;5048831;28;35991;-77
2021/06/20 09:12:46;;;;;;;4.22;3.83;;;;;;;;;;5056671;28;47395;-79
2021/06/20 09:15:13;;;;;;;4.57;3.38;;;;;;;;;;5060298;28;39863;-80
2021/06/20 09:17:40;;;;;;;2.35;2.00;;;;;;;;;;5053392;28;39365;-77
2021/06/20 09:20:07;;;;;;;3.63;2.08;;;;;;;;;;5061167;27;37740;-79
2021/06/20 09:22:34;;;;;;;2.42;1.70;;;;;;;;;;5064494;28;40789;-77
2021/06/20 09:25:01;;;;;;;7.07;2.53;;;;;;;;;;5055848;27;39233;-80
2021/06/20 09:27:28;;;;;;;2.45;1.70;;;;;;;;;;5050432;28;47526;-78
2021/06/20 09:29:55;;;;;;;3.17;1.75;;;;;;;;;;5051225;28;37118;-79
2021/06/20 09:32:21;;;;;;;2.92;1.95;;;;;;;;;;5044501;27;38469;-78
2021/06/20 09:34:48;;;;;;;3.40;2.40;;;;;;;;;;5032382;28;39119;-78
2021/06/20 09:37:18;;;;;;;2.35;2.13;;;;;;;;;;5024333;28;40236;-78
2021/06/20 09:39:44;;;;;;;2.17;1.75;;;;;;;;;;5029627;28;37204;-77
2021/06/20 09:42:12;;;;;;;3.08;2.60;;;;;;;;;;5048684;27;39648;-79
2021/06/20 09:44:42;;;;;;;3.78;2.30;;;;;;;;;;5051917;28;38787;-77
2021/06/20 09:47:13;;;;;;;2.83;2.33;;;;;;;;;;5056067;27;39445;-79
2021/06/20 09:49:39;;;;;;;2.55;2.20;;;;;;;;;;5056364;28;36443;-78
2021/06/20 09:52:07;;;;;;;3.25;2.92;;;;;;;;;;5046319;28;39487;-79
2021/06/20 09:54:35;;;;;;;3.33;3.03;;;;;;;;;;5064871;28;39463;-78
2021/06/20 09:57:01;;;;;;;3.30;3.00;;;;;;;;;;5052387;28;40999;-77
2021/06/20 09:59:32;;;;;;;3.83;3.33;;;;;;;;;;5043192;28;47561;-77
2021/06/20 10:02:08;;;;;;;5.43;3.17;;;;;;;;;;5052412;28;39950;-78
2021/06/20 10:04:35;;;;;;;3.28;2.88;;;;;;;;;;5022989;28;47062;-78
2021/06/20 10:07:02;;;;;;;3.17;2.88;;;;;;;;;;5034732;28;37008;-79
2021/06/20 10:09:28;;;;;;;3.30;2.30;;;;;;;;;;5051303;28;49306;-80
2021/06/20 10:11:54;;;;;;;2.78;2.35;;;;;;;;;;5055943;28;39575;-78
2021/06/20 10:14:21;;;;;;;3.08;2.78;;;;;;;;;;5045849;28;40173;-79
2021/06/20 10:16:50;;;;;;;3.42;3.10;;;;;;;;;;5051336;28;39715;-79
2021/06/20 10:19:18;;;;;;;2.80;2.55;;;;;;;;;;5049177;28;36676;-77
2021/06/20 10:21:46;;;;;;;4.03;3.72;;;;;;;;;;5045291;28;38639;-79
2021/06/20 10:24:12;;;;;;;3.95;3.58;;;;;;;;;;5052144;27;39981;-79
2021/06/20 10:26:41;;;;;;;5.95;4.25;;;;;;;;;;5059321;27;38281;-79
2021/06/20 10:29:24;;;;;;;4.60;3.15;;;;;;;;;;5061354;27;37466;-78
2021/06/20 10:31:51;;;;;;;4.20;3.80;;;;;;;;;;5048009;28;39981;-79
2021/06/20 10:34:27;;;;;;;4.68;3.78;;;;;;;;;;5082205;27;38904;-78
2021/06/20 10:36:58;;;;;;;3.60;3.22;;;;;;;;;;5049705;27;38216;-78
2021/06/20 10:39:25;;;;;;;2.95;2.70;;;;;;;;;;5063666;27;37136;-80
2021/06/20 10:42:07;;;;;;;4.55;4.15;;;;;;;;;;5058778;27;39165;-79
2021/06/20 10:44:43;;;;;;;5.10;3.28;;;;;;;;;;5041203;28;48772;-80
2021/06/20 10:47:10;;;;;;;5.30;4.18;;;;;;;;;;5042373;28;38462;-79
2021/06/20 10:49:37;;;;;;;4.28;3.88;;;;;;;;;;5044342;27;37520;-78
2021/06/20 10:52:16;;;;;;;4.97;4.47;;;;;;;;;;5048535;27;38713;-79
2021/06/20 10:54:43;;;;;;;4.05;3.70;;;;;;;;;;5037823;28;40407;-78
2021/06/20 10:57:12;;;;;;;4.22;3.83;;;;;;;;;;5042842;28;38580;-78
2021/06/20 10:59:39;;;;;;;3.95;3.65;;;;;;;;;;5077404;28;37069;-78
2021/06/20 11:02:20;;;;;;;8.18;4.43;;;;;;;;;;5035249;27;39335;-79
2021/06/20 11:04:46;;;;;;;6.45;4.38;;;;;;;;;;5041076;28;38682;-78
2021/06/20 11:07:21;;;;;;;4.78;3.55;;;;;;;;;;5072488;27;36988;-78
2021/06/20 11:09:48;;;;;;;4.60;3.50;;;;;;;;;;5070123;28;38405;-77
2021/06/20 11:12:15;;;;;;;3.42;3.13;;;;;;;;;;5076832;27;38650;-77
2021/06/20 11:14:43;;;;;;;4.15;3.15;;;;;;;;;;5039654;28;39819;-80
2021/06/20 11:17:09;;;;;;;6.20;4.00;;;;;;;;;;5063018;28;39983;-80
2021/06/20 11:19:36;;;;;;;3.72;3.10;;;;;;;;;;5035488;28;37589;-77
2021/06/20 11:22:03;;;;;;;4.70;3.88;;;;;;;;;;5033120;27;38471;-78
2021/06/20 11:24:31;;;;;;;5.20;4.18;;;;;;;;;;5068734;28;39477;-77
2021/06/20 11:26:59;;;;;;;3.35;3.05;;;;;;;;;;5029393;27;38409;-77
2021/06/20 11:29:26;;;;;;;6.10;3.80;;;;;;;;;;5033649;28;37918;-78
2021/06/20 11:31:54;;;;;;;4.72;3.65;;;;;;;;;;5060794;28;39949;-79
2021/06/20 11:34:21;;;;;;;4.53;3.83;;;;;;;;;;5034961;28;37640;-80
2021/06/20 11:36:49;;;;;;;3.92;3.55;;;;;;;;;;5036689;28;39591;-79
2021/06/20 11:39:16;;;;;;;4.07;3.67;;;;;;;;;;5040506;28;37686;-78
2021/06/20 11:41:44;;;;;;;5.88;4.20;;;;;;;;;;5042428;28;38944;-78
2021/06/20 11:44:10;;;;;;;4.35;3.95;;;;;;;;;;5045117;28;39111;-79
2021/06/20 11:46:41;;;;;;;4.75;4.20;;;;;;;;;;5044767;28;38766;-79
2021/06/20 11:49:09;;;;;;;4.33;3.90;;;;;;;;;;5040021;28;37471;-78
2021/06/20 11:51:37;;;;;;;3.72;3.03;;;;;;;;;;5037011;27;38645;-78
2021/06/20 11:54:12;;;;;;;4.63;3.38;;;;;;;;;;5037507;28;39219;-80
2021/06/20 11:56:39;;;;;;;4.97;4.40;;;;;;;;;;5034831;28;38726;-79
2021/06/20 11:59:06;;;;;;;6.28;4.72;;;;;;;;;;5036104;28;38054;-79
2021/06/20 12:01:46;;;;;;;6.90;6.20;;;;;;;;;;5062763;27;48911;-79
2021/06/20 12:04:14;;;;;;;7.65;6.22;;;;;;;;;;5060261;27;39340;-78
2021/06/20 12:06:40;;;;;;;9.65;6.90;;;;;;;;;;5054094;28;40096;-78
2021/06/20 12:09:07;;;;;;;8.95;8.05;;;;;;;;;;5060794;27;37481;-79
2021/06/20 12:11:35;;;;;;;8.20;7.00;;;;;;;;;;5046897;28;39567;-79
2021/06/20 12:14:02;;;;;;;11.82;8.75;;;;;;;;;;5053546;28;39199;-80
2021/06/20 12:16:29;;;;;;;10.25;9.23;;;;;;;;;;5055806;28;47289;-79
2021/06/20 12:18:57;;;;;;;9.55;8.55;;;;;;;;;;5056087;28;37542;-79
2021/06/20 12:21:24;;;;;;;9.55;7.72;;;;;;;;;;5049410;27;38836;-78
2021/06/20 12:23:58;;;;;;;10.05;7.50;;;;;;;;;;5058213;28;40378;-81
2021/06/20 12:26:31;;;;;;;7.30;6.55;;;;;;;;;;5060693;27;39487;-78
2021/06/20 12:28:59;;;;;;;7.05;6.22;;;;;;;;;;5053617;28;38695;-79
2021/06/20 12:31:26;;;;;;;7.10;5.45;;;;;;;;;;5050700;27;39718;-80
2021/06/20 12:34:09;;;;;;;5.43;4.93;;;;;;;;;;5056831;27;40887;-78
2021/06/20 12:36:36;;;;;;;5.55;4.72;;;;;;;;;;5053051;28;47618;-78
2021/06/20 12:39:04;;;;;;;5.70;5.13;;;;;;;;;;5056748;28;37189;-78
2021/06/20 12:41:30;;;;;;;9.15;6.03;;;;;;;;;;5054002;27;48899;-79
2021/06/20 12:43:58;;;;;;;8.98;5.32;;;;;;;;;;5065047;27;39462;-77
2021/06/20 12:46:31;;;;;;;5.28;4.82;;;;;;;;;;5054745;27;39357;-77
2021/06/20 12:49:03;;;;;;;6.70;5.43;;;;;;;;;;5039733;28;37801;-78
2021/06/20 12:51:37;;;;;;;5.63;4.60;;;;;;;;;;5049592;28;48776;-79
2021/06/20 12:54:10;;;;;;;6.07;5.55;;;;;;;;;;5052097;28;38798;-78
2021/06/20 12:56:38;;;;;;;5.15;4.55;;;;;;;;;;5050179;27;39326;-79
2021/06/20 12:59:07;;;;;;;8.23;5.82;;;;;;;;;;5058248;27;37719;-77
2021/06/20 13:01:37;;;;;;;7.90;6.68;;;;;;;;;;5062689;27;39177;-80
2021/06/20 13:04:10;;;;;;;5.80;5.22;;;;;;;;;;5063026;27;39781;-77
2021/06/20 13:06:37;;;;;;;5.53;4.90;;;;;;;;;;5050251;28;39500;-78
2021/06/20 13:09:04;;;;;;;6.20;5.45;;;;;;;;;;5039539;27;37416;-77
2021/06/20 13:11:30;;;;;;;4.15;3.70;;;;;;;;;;5049105;28;39329;-78
2021/06/20 13:14:16;;;;;;;5.60;4.47;;;;;;;;;;5057720;28;39100;-78
2021/06/20 13:16:43;;;;;;;6.07;5.13;;;;;;;;;;5064063;28;49281;-79
2021/06/20 13:19:09;;;;;;;4.82;4.38;;;;;;;;;;5049098;28;38020;-79
2021/06/20 13:21:36;;;;;;;5.32;4.72;;;;;;;;;;5062527;27;39283;-79
2021/06/20 13:24:03;;;;;;;5.50;4.50;;;;;;;;;;5049506;28;40356;-80
2021/06/20 13:26:30;;;;;;;6.60;5.38;;;;;;;;;;5041873;28;47210;-77
2021/06/20 13:28:56;;;;;;;5.22;4.38;;;;;;;;;;5061731;27;36703;-79
2021/06/20 13:31:23;;;;;;;5.78;4.13;;;;;;;;;;5061659;28;39645;-77
2021/06/20 13:33:54;;;;;;;7.43;4.72;;;;;;;;;;5045192;28;38857;-79
2021/06/20 13:36:20;;;;;;;4.27;3.87;;;;;;;;;;5044600;28;38397;-77
2021/06/20 13:38:46;;;;;;;4.50;3.95;;;;;;;;;;5057380;28;37159;-78
2021/06/20 13:41:13;;;;;;;4.93;4.35;;;;;;;;;;5056443;27;39954;-78
2021/06/20 13:43:39;;;;;;;4.05;3.70;;;;;;;;;;5045412;28;39432;-79
2021/06/20 13:46:06;;;;;;;5.78;4.47;;;;;;;;;;5052053;28;40249;-78
2021/06/20 13:48:32;;;;;;;4.32;3.50;;;;;;;;;;5050926;28;37164;-77
2021/06/20 13:50:58;;;;;;;4.20;3.83;;;;;;;;;;5053998;28;38832;-77
2021/06/20 13:53:25;;;;;;;5.68;4.30;;;;;;;;;;5071367;27;39846;-78
2021/06/20 13:55:51;;;;;;;5.07;4.55;;;;;;;;;;5075060;27;39093;-77
2021/06/20 13:58:18;;;;;;;4.90;3.85;;;;;;;;;;5079799;28;36734;-78
2021/06/20 14:00:45;;;;;;;4.32;3.88;;;;;;;;;;5060937;27;39822;-79
2021/06/20 14:03:12;;;;;;;4.40;3.58;;;;;;;;;;5055048;27;39226;-78
2021/06/20 14:05:38;;;;;;;4.43;3.92;;;;;;;;;;5061543;28;39267;-78
2021/06/20 14:08:04;;;;;;;4.38;3.97;;;;;;;;;;5066521;27;37700;-79
2021/06/20 14:10:31;;;;;;;5.25;4.75;;;;;;;;;;5048109;27;39304;-79
2021/06/20 14:12:59;;;;;;;4.53;4.10;;;;;;;;;;5060616;28;39371;-78
2021/06/20 14:15:26;;;;;;;5.05;3.63;;;;;;;;;;5055647;28;39140;-79
2021/06/20 14:17:52;;;;;;;3.60;3.30;;;;;;;;;;5065059;27;36900;-79
2021/06/20 14:20:19;;;;;;;4.88;4.03;;;;;;;;;;5057449;27;39478;-77
2021/06/20 14:22:45;;;;;;;4.40;3.45;;;;;;;;;;5065428;28;39201;-78
2021/06/20 14:25:12;;;;;;;5.15;4.00;;;;;;;;;;5052211;27;38746;-79
2021/06/20 14:27:38;;;;;;;6.93;4.40;;;;;;;;;;5051693;27;37659;-80
2021/06/20 14:30:06;;;;;;;3.38;2.95;;;;;;;;;;5056811;28;41076;-79
2021/06/20 14:32:32;;;;;;;5.38;3.90;;;;;;;;;;5065462;27;39287;-80
2021/06/20 14:34:59;;;;;;;5.05;3.28;;;;;;;;;;5079266;27;39211;-78
2021/06/20 14:37:26;;;;;;;4.63;3.03;;;;;;;;;;5046672;28;37544;-79
2021/06/20 14:39:54;;;;;;;3.50;2.67;;;;;;;;;;5049778;28;39531;-79
2021/06/20 14:42:20;;;;;;;3.60;3.08;;;;;;;;;;5053241;28;38719;-79
2021/06/20 14:44:47;;;;;;;4.78;3.08;;;;;;;;;;5050916;28;39819;-80